createdAt,value
2022-11-22T00:01:23.508Z,5.40
2022-11-22T00:04:11.371Z,5.40
2022-11-22T00:06:59.288Z,5.40
2022-11-22T00:09:47.093Z,5.40
2022-11-22T00:12:34.977Z,5.50
2022-11-22T00:15:24.417Z,5.50
2022-11-22T00:18:12.678Z,5.50
2022-11-22T00:21:06.199Z,5.50
2022-11-22T00:23:56.570Z,5.50
2022-11-22T00:26:44.569Z,5.50
2022-11-22T00:29:32.505Z,5.50
2022-11-22T00:32:22.393Z,5.60
2022-11-22T00:35:10.924Z,5.60
2022-11-22T00:38:00.099Z,5.50
2022-11-22T00:40:48.546Z,5.60
2022-11-22T00:43:37.024Z,5.60
2022-11-22T00:46:25.279Z,5.50
2022-11-22T00:49:15.015Z,5.60
2022-11-22T00:52:03.355Z,5.60
2022-11-22T00:54:54.786Z,5.60
2022-11-22T00:57:43.378Z,5.60
2022-11-22T01:00:31.592Z,5.60
2022-11-22T01:03:19.772Z,5.60
2022-11-22T01:06:10.297Z,5.50
2022-11-22T01:08:58.484Z,5.60
2022-11-22T01:11:46.549Z,5.50
2022-11-22T01:14:34.636Z,5.60
2022-11-22T01:17:24.731Z,5.60
2022-11-22T01:20:13.942Z,5.60
2022-11-22T01:23:03.569Z,5.60
2022-11-22T01:25:55.220Z,5.60
2022-11-22T01:28:43.800Z,5.60
2022-11-22T01:31:32.401Z,5.60
2022-11-22T01:34:20.462Z,5.60
2022-11-22T01:37:08.528Z,5.50
2022-11-22T01:39:57.877Z,5.60
2022-11-22T01:42:47.729Z,5.60
2022-11-22T01:45:42.264Z,5.60
2022-11-22T01:48:32.722Z,5.60
2022-11-22T01:51:24.873Z,5.50
2022-11-22T01:54:15.150Z,5.50
2022-11-22T01:57:06.172Z,5.60
2022-11-22T01:59:56.442Z,5.60
2022-11-22T02:02:45.456Z,5.60
2022-11-22T02:05:35.924Z,5.60
2022-11-22T02:08:25.276Z,5.60
2022-11-22T02:11:13.557Z,5.70
2022-11-22T02:14:03.592Z,5.70
2022-11-22T02:16:51.562Z,5.70
2022-11-22T02:19:41.635Z,5.80
2022-11-22T02:22:32.567Z,5.80
2022-11-22T02:25:22.463Z,5.80
2022-11-22T02:28:13.872Z,5.80
2022-11-22T02:31:01.777Z,5.80
2022-11-22T02:33:49.743Z,5.90
2022-11-22T02:36:40.848Z,5.90
2022-11-22T02:39:30.881Z,5.90
2022-11-22T02:42:19.184Z,5.80
2022-11-22T02:45:08.910Z,5.80
2022-11-22T02:48:05.403Z,5.90
2022-11-22T02:50:53.254Z,5.90
2022-11-22T02:53:41.108Z,5.90
2022-11-22T02:56:29.004Z,5.90
2022-11-22T02:59:16.927Z,5.90
2022-11-22T03:02:06.173Z,5.90
2022-11-22T03:04:54.023Z,5.90
2022-11-22T03:07:42.834Z,5.90
2022-11-22T03:10:32.162Z,5.90
2022-11-22T03:13:20.201Z,5.90
2022-11-22T03:16:08.619Z,5.90
2022-11-22T03:19:00.280Z,5.90
2022-11-22T03:21:52.707Z,5.90
2022-11-22T03:24:41.159Z,5.90
2022-11-22T03:27:29.084Z,5.90
2022-11-22T03:30:17.115Z,5.90
2022-11-22T03:33:04.980Z,5.90
2022-11-22T03:35:57.416Z,5.90
2022-11-22T03:38:45.368Z,5.90
2022-11-22T03:41:33.314Z,6.00
2022-11-22T03:44:21.206Z,6.00
2022-11-22T03:47:09.090Z,6.00
2022-11-22T03:49:56.948Z,6.00
2022-11-22T03:52:46.195Z,6.00
2022-11-22T03:55:34.090Z,6.00
2022-11-22T03:58:21.961Z,6.00
2022-11-22T04:01:14.952Z,6.00
2022-11-22T04:04:04.346Z,6.00
2022-11-22T04:06:52.263Z,6.00
2022-11-22T04:09:41.487Z,6.00
2022-11-22T04:12:29.960Z,6.00
2022-11-22T04:15:16.925Z,6.00
2022-11-22T04:18:04.888Z,6.00
2022-11-22T04:21:10.394Z,6.00
2022-11-22T04:24:16.042Z,6.00
2022-11-22T04:27:05.393Z,6.00
2022-11-22T04:29:53.236Z,6.10
2022-11-22T04:32:46.125Z,6.10
2022-11-22T04:35:34.029Z,6.00
2022-11-22T04:38:22.408Z,6.00
2022-11-22T04:41:10.486Z,6.10
2022-11-22T04:44:17.830Z,6.10
2022-11-22T04:47:06.024Z,6.10
2022-11-22T04:49:54.474Z,6.10
2022-11-22T04:52:57.832Z,6.10
2022-11-22T04:55:47.408Z,6.10
2022-11-22T04:58:35.541Z,6.10
2022-11-22T05:01:25.135Z,6.00
2022-11-22T05:04:13.315Z,6.10
2022-11-22T05:07:01.644Z,6.10
2022-11-22T05:09:49.951Z,6.10
2022-11-22T05:12:37.936Z,6.10
2022-11-22T05:15:26.176Z,6.10
2022-11-22T05:18:15.805Z,6.10
2022-11-22T05:21:06.930Z,6.10
2022-11-22T05:23:58.638Z,6.10
2022-11-22T05:26:46.736Z,6.10
2022-11-22T05:29:34.930Z,6.10
2022-11-22T05:32:23.214Z,6.10
2022-11-22T05:35:13.165Z,6.20
2022-11-22T05:38:01.993Z,6.20
2022-11-22T05:40:50.326Z,6.20
2022-11-22T05:43:39.161Z,6.20
2022-11-22T05:46:30.257Z,6.20
2022-11-22T05:49:18.416Z,6.20
2022-11-22T05:52:09.360Z,6.20
2022-11-22T05:54:58.279Z,6.20
2022-11-22T05:57:47.079Z,6.30
2022-11-22T06:00:35.944Z,6.30
2022-11-22T06:03:25.382Z,6.30
2022-11-22T06:06:14.767Z,6.30
2022-11-22T06:09:05.524Z,6.30
2022-11-22T06:11:54.028Z,6.30
2022-11-22T06:14:43.799Z,6.30
2022-11-22T06:17:32.556Z,6.40
2022-11-22T06:20:20.984Z,6.40
2022-11-22T06:23:09.136Z,6.40
2022-11-22T06:26:00.013Z,6.40
2022-11-22T06:28:48.816Z,6.40
2022-11-22T06:31:37.034Z,6.40
2022-11-22T06:34:25.696Z,6.40
2022-11-22T06:37:15.611Z,6.40
2022-11-22T06:40:03.766Z,6.40
2022-11-22T06:42:54.012Z,6.40
2022-11-22T06:45:42.029Z,6.40
2022-11-22T06:48:30.528Z,6.40
2022-11-22T06:51:19.832Z,6.40
2022-11-22T06:54:07.812Z,6.50
2022-11-22T06:56:55.692Z,6.50
2022-11-22T06:59:45.661Z,6.50
2022-11-22T07:02:33.544Z,6.50
2022-11-22T07:05:26.204Z,6.50
2022-11-22T07:08:14.457Z,6.50
2022-11-22T07:11:06.110Z,6.50
2022-11-22T07:13:54.043Z,6.50
2022-11-22T07:16:43.360Z,6.50
2022-11-22T07:19:31.940Z,6.50
2022-11-22T07:22:20.002Z,6.50
2022-11-22T07:25:08.124Z,6.60
2022-11-22T07:27:55.997Z,6.60
2022-11-22T07:30:44.535Z,6.60
2022-11-22T07:33:34.001Z,6.50
2022-11-22T07:36:22.874Z,6.60
2022-11-22T07:39:10.915Z,6.60
2022-11-22T07:41:58.737Z,6.50
2022-11-22T07:44:46.658Z,6.60
2022-11-22T07:47:34.505Z,6.60
2022-11-22T07:50:23.725Z,6.60
2022-11-22T07:53:11.695Z,6.60
2022-11-22T07:56:01.678Z,6.50
2022-11-22T07:58:49.583Z,6.50
2022-11-22T08:01:37.491Z,6.50
2022-11-22T08:04:25.486Z,6.50
2022-11-22T08:07:14.743Z,6.50
2022-11-22T08:10:02.720Z,6.50
2022-11-22T08:12:50.611Z,6.50
2022-11-22T08:15:38.496Z,6.50
2022-11-22T08:18:26.375Z,6.50
2022-11-22T08:21:15.156Z,6.60
2022-11-22T08:24:04.454Z,6.60
2022-11-22T08:26:52.344Z,6.60
2022-11-22T08:29:40.229Z,6.60
2022-11-22T08:32:28.614Z,6.60
2022-11-22T08:35:16.618Z,6.60
2022-11-22T08:38:04.468Z,6.60
2022-11-22T08:40:53.744Z,6.70
2022-11-22T08:43:41.658Z,6.70
2022-11-22T08:46:29.480Z,6.70
2022-11-22T08:49:17.382Z,6.70
2022-11-22T08:52:05.318Z,6.70
2022-11-22T08:54:53.239Z,6.70
2022-11-22T08:57:42.550Z,6.70
2022-11-22T09:00:33.592Z,6.80
2022-11-22T09:03:21.733Z,6.80
2022-11-22T09:12:27.096Z,6.80
2022-11-22T09:15:16.878Z,6.90
2022-11-22T09:18:05.110Z,6.90
2022-11-22T09:20:58.076Z,6.90
2022-11-22T09:23:46.309Z,6.90
2022-11-22T09:26:34.149Z,7.00
2022-11-22T09:29:22.054Z,7.00
2022-11-22T09:32:11.600Z,7.00
2022-11-22T09:34:59.615Z,7.00
2022-11-22T09:37:47.484Z,7.00
2022-11-22T09:40:36.903Z,7.00
2022-11-22T09:43:34.000Z,7.00
2022-11-22T09:46:30.637Z,7.10
2022-11-22T09:49:30.578Z,7.10
2022-11-22T09:52:22.888Z,7.20
2022-11-22T09:55:16.013Z,7.20
2022-11-22T09:58:10.458Z,7.20
2022-11-22T10:01:02.482Z,7.20
2022-11-22T10:03:53.380Z,7.30
2022-11-22T10:06:44.452Z,7.30
2022-11-22T10:09:35.084Z,7.30
2022-11-22T10:12:25.209Z,7.30
2022-11-22T10:15:15.596Z,7.40
2022-11-22T10:18:05.616Z,7.50
2022-11-22T10:20:53.714Z,7.50
2022-11-22T10:23:43.648Z,7.50
2022-11-22T10:26:33.318Z,7.50
2022-11-22T10:29:27.067Z,7.50
2022-11-22T10:32:19.874Z,7.70
2022-11-22T10:35:17.420Z,7.60
2022-11-22T10:38:13.207Z,7.70
2022-11-22T10:41:05.643Z,7.70
2022-11-22T10:44:00.739Z,7.70
2022-11-22T10:46:57.248Z,7.70
2022-11-22T10:49:51.133Z,7.70
2022-11-22T10:52:44.493Z,7.60
2022-11-22T10:55:53.511Z,7.60
2022-11-22T10:58:49.506Z,7.60
2022-11-22T11:01:39.843Z,7.60
2022-11-22T11:04:29.630Z,7.70
2022-11-22T11:07:18.426Z,7.70
2022-11-22T11:10:26.390Z,7.70
2022-11-22T11:13:22.052Z,7.70
2022-11-22T11:16:13.628Z,7.70
2022-11-22T11:19:04.339Z,7.70
2022-11-22T11:21:56.769Z,7.70
2022-11-22T11:24:44.642Z,7.60
2022-11-22T11:27:32.704Z,7.70
2022-11-22T11:30:20.568Z,7.70
2022-11-22T11:33:18.458Z,7.70
2022-11-22T11:36:07.496Z,7.70
2022-11-22T11:38:56.375Z,7.80
2022-11-22T11:41:44.283Z,7.90
2022-11-22T11:44:34.656Z,7.90
2022-11-22T11:47:33.041Z,7.90
2022-11-22T11:50:24.565Z,7.90
2022-11-22T11:53:16.582Z,7.90
2022-11-22T11:56:20.735Z,7.80
2022-11-22T11:59:12.569Z,7.80
2022-11-22T12:02:03.501Z,7.90
2022-11-22T12:04:53.056Z,7.80
2022-11-22T12:07:44.677Z,7.80
2022-11-22T12:10:41.655Z,7.80
2022-11-22T12:13:32.967Z,7.90
2022-11-22T12:16:23.488Z,7.90
2022-11-22T12:19:20.292Z,7.90
2022-11-22T12:22:29.569Z,7.80
2022-11-22T12:25:33.189Z,7.80
2022-11-22T12:28:23.796Z,7.80
2022-11-22T12:31:15.844Z,7.80
2022-11-22T12:34:07.939Z,7.80
2022-11-22T12:37:01.075Z,7.80
2022-11-22T12:39:51.896Z,7.80
2022-11-22T12:42:44.894Z,7.80
2022-11-22T12:45:36.039Z,7.80
2022-11-22T12:48:29.079Z,7.80
2022-11-22T12:51:21.726Z,7.80
2022-11-22T12:54:13.763Z,7.80
2022-11-22T12:57:03.880Z,7.80
2022-11-22T12:59:55.936Z,7.90
2022-11-22T13:02:47.700Z,7.90
2022-11-22T13:05:38.440Z,7.90
2022-11-22T13:08:29.811Z,8.00
2022-11-22T13:11:20.896Z,7.90
2022-11-22T13:14:15.182Z,8.00
2022-11-22T13:17:09.567Z,8.00
2022-11-22T13:20:00.468Z,7.90
2022-11-22T13:22:53.676Z,7.90
2022-11-22T13:25:46.882Z,7.90
2022-11-22T13:28:36.959Z,7.90
2022-11-22T13:31:25.257Z,7.90
2022-11-22T13:34:24.570Z,7.90
2022-11-22T13:37:14.061Z,7.80
2022-11-22T13:40:11.250Z,7.80
2022-11-22T13:43:22.236Z,7.80
2022-11-22T13:46:43.070Z,7.80
2022-11-22T13:49:38.323Z,7.80
2022-11-22T13:52:30.035Z,7.90
2022-11-22T13:55:29.696Z,7.90
2022-11-22T13:58:38.800Z,7.90
2022-11-22T14:01:32.138Z,7.90
2022-11-22T14:04:21.907Z,7.80
2022-11-22T14:07:37.593Z,7.90
2022-11-22T14:10:32.876Z,7.90
2022-11-22T14:13:27.455Z,7.90
2022-11-22T14:16:21.740Z,7.90
2022-11-22T14:19:18.727Z,7.90
2022-11-22T14:22:24.918Z,7.90
2022-11-22T14:25:27.851Z,7.80
2022-11-22T14:28:26.638Z,7.80
2022-11-22T14:31:21.782Z,7.80
2022-11-22T14:34:17.024Z,7.80
2022-11-22T14:37:23.963Z,7.80
2022-11-22T14:40:18.710Z,7.80
2022-11-22T14:43:34.279Z,7.70
2022-11-22T14:46:51.817Z,7.70
2022-11-22T14:49:37.554Z,7.70
2022-11-22T14:52:27.807Z,7.60
2022-11-22T14:55:17.628Z,7.70
2022-11-22T14:58:07.865Z,7.60
2022-11-22T15:01:04.544Z,7.70
2022-11-22T15:09:22.562Z,7.70
2022-11-22T15:09:23.396Z,7.70
2022-11-22T15:11:00.140Z,7.60
2022-11-22T15:14:07.004Z,7.60
2022-11-22T15:58:45.200Z,7.40
2022-11-22T16:01:38.684Z,7.50
2022-11-22T16:04:29.541Z,7.50
2022-11-22T16:07:25.001Z,7.40
2022-11-22T16:10:18.763Z,7.40
2022-11-22T16:13:13.807Z,7.40
2022-11-22T16:16:05.684Z,7.40
2022-11-22T16:18:54.397Z,7.40
2022-11-22T16:21:55.589Z,7.40
2022-11-22T16:24:44.797Z,7.30
2022-11-22T16:27:32.845Z,7.30
2022-11-22T16:30:23.732Z,7.30
2022-11-22T16:33:11.883Z,7.30
2022-11-22T16:36:00.356Z,7.20
2022-11-22T16:38:48.242Z,7.20
2022-11-22T16:41:37.530Z,7.20
2022-11-22T16:44:25.937Z,7.20
2022-11-22T16:47:16.411Z,7.20
2022-11-22T16:50:06.449Z,7.20
2022-11-22T16:53:02.535Z,7.10
2022-11-22T16:55:51.272Z,7.10
2022-11-22T16:58:40.503Z,7.10
2022-11-22T17:01:32.597Z,7.10
2022-11-22T17:04:22.453Z,7.20
2022-11-22T17:07:10.902Z,7.20
2022-11-22T17:09:58.825Z,7.10
2022-11-22T17:12:46.699Z,7.10
2022-11-22T17:15:36.593Z,7.10
2022-11-22T17:18:25.054Z,7.20
2022-11-22T17:21:16.180Z,7.20
2022-11-22T17:24:04.811Z,7.20
2022-11-22T17:26:52.973Z,7.20
2022-11-22T17:29:50.771Z,7.20
2022-11-22T17:32:40.632Z,7.20
2022-11-22T17:35:32.173Z,7.20
2022-11-22T17:38:24.030Z,7.20
2022-11-22T17:41:12.367Z,7.30
2022-11-22T17:44:00.745Z,7.30
2022-11-22T17:46:48.692Z,7.30
2022-11-22T17:49:37.934Z,7.20
2022-11-22T17:52:25.804Z,7.30
2022-11-22T17:55:14.589Z,7.30
2022-11-22T17:58:02.618Z,7.30
2022-11-22T18:00:50.510Z,7.30
2022-11-22T18:03:38.501Z,7.30
2022-11-22T18:06:29.148Z,7.30
2022-11-22T18:09:17.030Z,7.20
2022-11-22T18:12:05.071Z,7.40
2022-11-22T18:14:52.928Z,7.30
2022-11-22T18:17:43.193Z,7.30
2022-11-22T18:20:31.037Z,7.30
2022-11-22T18:23:20.828Z,7.30
2022-11-22T18:32:26.392Z,7.30
2022-11-22T18:35:14.980Z,7.30
2022-11-22T18:38:02.909Z,7.30
2022-11-22T18:40:52.378Z,7.40
2022-11-22T18:43:40.323Z,7.40
2022-11-22T18:46:28.239Z,7.30
2022-11-22T18:49:16.262Z,7.30
2022-11-22T18:52:06.576Z,7.30
2022-11-22T18:54:57.590Z,7.30
2022-11-22T18:57:49.510Z,7.30
2022-11-22T19:00:37.431Z,7.20
2022-11-22T19:03:25.636Z,7.30
2022-11-22T19:06:14.404Z,7.30
2022-11-22T19:09:02.316Z,7.30
2022-11-22T19:11:52.598Z,7.30
2022-11-22T19:14:44.848Z,7.30
2022-11-22T19:17:34.082Z,7.30
2022-11-22T19:20:53.520Z,7.30
2022-11-22T19:23:31.147Z,7.30
2022-11-22T19:26:20.516Z,7.30
2022-11-22T19:29:08.925Z,7.40
2022-11-22T19:31:58.207Z,7.30
2022-11-22T19:34:46.279Z,7.40
2022-11-22T19:37:34.153Z,7.30
2022-11-22T19:40:22.000Z,7.30
2022-11-22T19:43:15.008Z,7.40
2022-11-22T19:46:04.486Z,7.30
2022-11-22T19:48:54.279Z,7.40
2022-11-22T19:51:42.227Z,7.30
2022-11-22T19:54:30.048Z,7.40
2022-11-22T19:57:18.082Z,7.40
2022-11-22T20:00:06.558Z,7.40
2022-11-22T20:02:54.594Z,7.40
2022-11-22T20:05:43.816Z,7.40
2022-11-22T20:08:32.076Z,7.40
2022-11-22T20:11:20.758Z,7.40
2022-11-22T20:14:09.324Z,7.40
2022-11-22T20:16:57.231Z,7.30
2022-11-22T20:19:46.205Z,7.30
2022-11-22T20:22:35.845Z,7.30
2022-11-22T20:25:23.712Z,7.40
2022-11-22T20:28:11.624Z,7.50
2022-11-22T20:31:06.399Z,7.40
2022-11-22T20:33:55.399Z,7.40
2022-11-22T20:36:43.568Z,7.40
2022-11-22T20:39:35.369Z,7.40
2022-11-22T20:42:34.197Z,7.40
2022-11-22T20:45:22.266Z,7.40
2022-11-22T20:48:10.334Z,7.40
2022-11-22T20:50:58.219Z,7.40
2022-11-22T20:53:46.650Z,7.40
2022-11-22T20:56:35.873Z,7.40
2022-11-22T20:59:23.733Z,7.40
2022-11-22T21:02:11.627Z,7.40
2022-11-22T21:04:59.532Z,7.40
2022-11-22T21:07:47.482Z,7.40
2022-11-22T21:10:35.382Z,7.40
2022-11-22T21:13:24.659Z,7.50
2022-11-22T21:16:22.810Z,7.40
2022-11-22T21:19:11.977Z,7.50
2022-11-22T21:22:02.555Z,7.50
2022-11-22T21:24:50.646Z,7.50
2022-11-22T21:27:38.501Z,7.50
2022-11-22T21:30:27.723Z,7.50
2022-11-22T21:33:15.628Z,7.50
2022-11-22T21:36:04.606Z,7.50
2022-11-22T21:38:52.458Z,7.50
2022-11-22T21:41:41.251Z,7.50
2022-11-22T21:44:29.836Z,7.50
2022-11-22T21:47:20.531Z,7.50
2022-11-22T21:50:11.617Z,7.50
2022-11-22T21:52:59.922Z,7.50
2022-11-22T21:55:51.011Z,7.50
2022-11-22T21:58:39.084Z,7.50
2022-11-22T22:01:27.670Z,7.60
2022-11-22T22:04:17.728Z,7.50
2022-11-22T22:07:07.324Z,7.50
2022-11-22T22:09:59.863Z,7.50
2022-11-22T22:12:50.624Z,7.50
2022-11-22T22:15:39.066Z,7.50
2022-11-22T22:18:30.515Z,7.50
2022-11-22T22:21:20.218Z,7.50
2022-11-22T22:24:11.414Z,7.50
2022-11-22T22:27:01.077Z,7.60
2022-11-22T22:29:48.949Z,7.60
2022-11-22T22:32:37.082Z,7.60
2022-11-22T22:35:25.109Z,7.60
2022-11-22T22:38:14.388Z,7.60
2022-11-22T22:41:03.179Z,7.60
2022-11-22T22:43:51.192Z,7.60
2022-11-22T22:46:39.079Z,7.60
2022-11-22T22:49:27.090Z,7.60
2022-11-22T22:52:15.081Z,7.60
2022-11-22T22:55:08.190Z,7.50
2022-11-22T22:57:57.579Z,7.50
2022-11-22T23:00:45.635Z,7.50
2022-11-22T23:03:33.791Z,7.60
2022-11-22T23:06:22.638Z,7.60
2022-11-22T23:09:12.005Z,7.60
2022-11-22T23:12:13.245Z,7.60
2022-11-22T23:15:01.227Z,7.60
2022-11-22T23:17:49.191Z,7.60
2022-11-22T23:20:37.094Z,7.60
2022-11-22T23:23:25.063Z,7.70
2022-11-22T23:26:13.593Z,7.70
2022-11-22T23:29:02.906Z,7.60
2022-11-22T23:31:50.834Z,7.70
2022-11-22T23:34:38.733Z,7.70
2022-11-22T23:37:26.907Z,7.60
2022-11-22T23:40:15.241Z,7.70
2022-11-22T23:43:03.118Z,7.60
2022-11-22T23:45:52.372Z,7.70
2022-11-22T23:48:40.309Z,7.70
2022-11-22T23:51:29.245Z,7.60
2022-11-22T23:54:17.418Z,7.70
2022-11-22T23:57:05.339Z,7.60
2022-11-22T23:59:53.227Z,7.60
